Time;durP1;ratioP1;P1;durP2;ratioP2;P2;SDS_P1;SDS_P2;PMS_P1;PMS_P2;Temp;Humidity;BMP_temperature;BMP_pressure;BME280_temperature;BME280_humidity;BME280_pressure;Samples;Min_cycle;Max_cycle;Signal;HPM_P1;HPM_P2
2023/10/24 00:01:54;;;;;;;47.93;46.27;;;13.80;99.90;;;;;;5032299;28;20232;-64
2023/10/24 00:04:21;;;;;;;43.40;41.87;;;13.80;99.90;;;;;;5032323;28;20212;-66
2023/10/24 00:06:47;;;;;;;38.43;37.03;;;13.80;99.90;;;;;;5032948;28;20219;-66
2023/10/24 00:09:14;;;;;;;41.10;39.60;;;13.80;99.90;;;;;;5032395;28;20205;-66
2023/10/24 00:11:41;;;;;;;45.47;43.87;;;13.80;99.90;;;;;;5032362;28;20211;-65
2023/10/24 00:14:07;;;;;;;42.17;40.67;;;13.80;99.90;;;;;;5033419;28;20240;-65
2023/10/24 00:16:35;;;;;;;38.27;36.90;;;13.70;99.90;;;;;;5033749;28;20218;-64
2023/10/24 00:19:02;;;;;;;60.97;58.67;;;13.80;99.90;;;;;;5032052;28;20201;-64
2023/10/24 00:21:30;;;;;;;45.17;43.57;;;13.70;99.90;;;;;;5030931;28;20539;-66
2023/10/24 00:23:56;;;;;;;38.80;37.37;;;13.70;99.90;;;;;;5031986;28;20204;-68
2023/10/24 00:26:23;;;;;;;38.83;37.47;;;13.70;99.90;;;;;;5032306;28;20201;-68
2023/10/24 00:28:50;;;;;;;38.67;37.27;;;13.70;99.90;;;;;;5031736;28;20205;-67
2023/10/24 00:31:16;;;;;;;32.77;31.60;;;13.60;99.90;;;;;;5031815;28;20202;-67
2023/10/24 00:33:44;;;;;;;30.17;29.13;;;13.70;99.90;;;;;;5031350;28;20216;-68
2023/10/24 00:36:11;;;;;;;35.20;33.97;;;13.70;99.90;;;;;;5031870;28;20228;-66
2023/10/24 00:38:38;;;;;;;35.57;34.37;;;13.80;99.90;;;;;;5032121;28;20216;-68
2023/10/24 00:41:04;;;;;;;31.57;30.47;;;13.70;99.90;;;;;;5030111;28;20238;-68
2023/10/24 00:43:31;;;;;;;32.30;31.13;;;13.80;99.90;;;;;;5033984;28;20224;-68
2023/10/24 00:45:58;;;;;;;34.80;33.50;;;13.80;99.90;;;;;;5035453;28;20542;-67
2023/10/24 00:48:25;;;;;;;33.03;31.83;;;13.80;99.90;;;;;;5037054;28;20208;-67
2023/10/24 00:50:53;;;;;;;36.03;34.80;;;13.90;99.90;;;;;;5038899;28;20205;-67
2023/10/24 00:53:20;;;;;;;33.60;32.40;;;13.90;99.90;;;;;;5043236;28;20602;-67
2023/10/24 00:55:47;;;;;;;37.70;36.33;;;13.90;99.90;;;;;;5047396;28;20212;-66
2023/10/24 00:58:15;;;;;;;34.97;33.73;;;13.90;99.90;;;;;;5044666;28;20216;-67
2023/10/24 01:00:44;;;;;;;27.27;26.30;;;14.00;99.90;;;;;;5032479;28;20204;-69
2023/10/24 01:03:12;;;;;;;34.13;32.93;;;13.90;99.90;;;;;;5032998;28;20243;-66
2023/10/24 01:05:39;;;;;;;33.27;32.00;;;13.90;99.90;;;;;;5032480;28;20196;-64
2023/10/24 01:08:07;;;;;;;40.83;39.37;;;13.90;99.90;;;;;;5031794;28;20228;-68
2023/10/24 01:10:34;;;;;;;35.90;34.67;;;13.90;99.90;;;;;;5031394;28;20201;-69
2023/10/24 01:13:01;;;;;;;41.20;39.77;;;13.90;99.90;;;;;;5031458;28;20216;-67
2023/10/24 01:15:27;;;;;;;34.73;33.50;;;13.90;99.90;;;;;;5026622;28;20316;-67
2023/10/24 01:17:54;;;;;;;35.10;33.87;;;13.90;99.90;;;;;;5031636;28;20205;-67
2023/10/24 01:20:21;;;;;;;39.03;37.60;;;13.90;99.90;;;;;;5031274;28;20208;-65
2023/10/24 01:22:49;;;;;;;43.03;41.53;;;13.90;99.90;;;;;;5031234;28;20232;-67
2023/10/24 01:25:16;;;;;;;42.40;40.87;;;13.90;99.90;;;;;;5031653;28;20284;-68
2023/10/24 01:27:44;;;;;;;39.13;37.73;;;13.90;99.90;;;;;;5031195;28;20208;-68
2023/10/24 01:30:13;;;;;;;41.80;40.30;;;13.80;99.90;;;;;;5031952;28;20232;-66
2023/10/24 01:32:40;;;;;;;47.77;46.07;;;13.90;99.90;;;;;;5034192;28;20220;-68
2023/10/24 01:35:10;;;;;;;64.47;62.27;;;13.80;99.90;;;;;;5040141;28;20231;-66
2023/10/24 01:37:37;;;;;;;58.10;56.13;;;13.80;99.90;;;;;;5047065;28;20204;-67
2023/10/24 01:40:06;;;;;;;54.70;52.83;;;13.80;99.90;;;;;;5040774;28;20207;-65
2023/10/24 01:42:33;;;;;;;45.83;44.27;;;13.80;99.90;;;;;;5044088;28;20228;-65
2023/10/24 01:45:00;;;;;;;49.47;47.77;;;13.80;99.90;;;;;;5044670;28;20204;-66
2023/10/24 01:47:27;;;;;;;38.47;37.07;;;13.80;99.90;;;;;;5030602;28;20213;-66
2023/10/24 01:49:53;;;;;;;39.97;38.57;;;13.80;99.90;;;;;;5030920;28;20200;-66
2023/10/24 01:52:20;;;;;;;41.33;39.90;;;13.80;99.90;;;;;;5030883;28;20228;-67
2023/10/24 01:54:47;;;;;;;36.50;35.20;;;13.90;99.90;;;;;;5031112;28;20694;-66
2023/10/24 01:57:15;;;;;;;41.67;40.17;;;13.90;99.90;;;;;;5037816;28;20212;-66
2023/10/24 01:59:42;;;;;;;40.73;39.23;;;13.90;99.90;;;;;;5040142;28;20208;-68
2023/10/24 02:02:08;;;;;;;36.63;35.33;;;13.90;99.90;;;;;;5030397;28;20296;-67
2023/10/24 02:04:35;;;;;;;40.33;38.93;;;13.90;99.90;;;;;;5030556;28;20197;-67
2023/10/24 02:07:02;;;;;;;37.13;35.73;;;14.00;99.90;;;;;;5030596;28;20196;-67
2023/10/24 02:09:30;;;;;;;36.57;35.23;;;13.90;99.90;;;;;;5030331;28;20712;-66
2023/10/24 02:11:57;;;;;;;41.17;39.70;;;13.90;99.90;;;;;;5030103;28;20235;-66
2023/10/24 02:14:25;;;;;;;33.27;32.13;;;14.00;99.90;;;;;;5030051;28;20229;-67
2023/10/24 02:16:51;;;;;;;36.70;35.40;;;14.00;99.90;;;;;;5030195;28;20196;-66
2023/10/24 02:19:18;;;;;;;37.73;36.40;;;14.10;99.90;;;;;;5029568;28;20730;-66
2023/10/24 02:21:45;;;;;;;38.27;36.93;;;14.10;99.90;;;;;;5029521;28;20567;-68
2023/10/24 02:24:11;;;;;;;33.30;32.10;;;14.10;99.90;;;;;;5030177;28;20192;-66
2023/10/24 02:26:38;;;;;;;33.73;32.53;;;14.10;99.90;;;;;;5029697;28;20197;-67
2023/10/24 02:29:05;;;;;;;30.40;29.33;;;14.20;99.90;;;;;;5027001;28;20208;-66
2023/10/24 02:31:33;;;;;;;33.63;32.43;;;14.20;99.90;;;;;;5025639;28;20691;-67
2023/10/24 02:34:00;;;;;;;42.40;40.90;;;14.10;99.90;;;;;;5031079;28;20233;-67
2023/10/24 02:36:27;;;;;;;34.97;33.70;;;14.10;99.90;;;;;;5030311;28;20215;-68
2023/10/24 02:38:53;;;;;;;32.23;31.10;;;14.10;99.90;;;;;;5030519;28;20219;-68
2023/10/24 02:41:20;;;;;;;30.03;29.00;;;14.10;99.90;;;;;;5030916;28;20212;-67
2023/10/24 02:43:47;;;;;;;32.87;31.73;;;14.10;99.90;;;;;;5030522;28;20315;-66
2023/10/24 02:46:13;;;;;;;31.40;30.30;;;14.10;99.90;;;;;;5029710;28;20208;-65
2023/10/24 02:48:41;;;;;;;36.07;34.80;;;14.10;99.90;;;;;;5029869;28;20227;-68
2023/10/24 02:51:08;;;;;;;37.77;36.43;;;14.20;99.90;;;;;;5029760;28;20201;-67
2023/10/24 02:53:35;;;;;;;31.50;30.40;;;14.20;99.90;;;;;;5030177;28;20231;-68
2023/10/24 02:56:03;;;;;;;31.73;30.57;;;14.20;99.90;;;;;;5029709;28;20242;-68
2023/10/24 02:58:29;;;;;;;41.73;40.27;;;14.10;99.90;;;;;;5032323;28;20278;-66
2023/10/24 03:00:56;;;;;;;38.20;36.90;;;13.90;99.90;;;;;;5033629;28;20561;-66
2023/10/24 03:03:23;;;;;;;31.27;30.17;;;13.60;99.90;;;;;;5033561;28;20727;-67
2023/10/24 03:05:51;;;;;;;39.20;37.80;;;13.50;99.90;;;;;;5033814;28;20667;-68
2023/10/24 03:08:17;;;;;;;34.50;33.20;;;13.40;99.90;;;;;;5033808;28;20288;-66
2023/10/24 03:10:44;;;;;;;35.17;33.93;;;13.30;99.90;;;;;;5035444;28;20201;-67
2023/10/24 03:13:11;;;;;;;36.07;34.77;;;13.30;99.90;;;;;;5034232;28;20900;-67
2023/10/24 03:15:39;;;;;;;34.00;32.80;;;13.30;99.90;;;;;;5038073;28;20232;-67
2023/10/24 03:18:06;;;;;;;32.67;31.50;;;13.30;99.90;;;;;;5037063;28;20208;-68
2023/10/24 03:20:32;;;;;;;30.90;29.80;;;13.30;99.90;;;;;;5037837;28;20204;-66
2023/10/24 03:23:00;;;;;;;31.07;29.97;;;13.30;99.90;;;;;;5034979;28;20235;-66
2023/10/24 03:25:28;;;;;;;31.57;30.47;;;13.30;99.90;;;;;;5035467;28;20205;-68
2023/10/24 03:27:55;;;;;;;30.50;29.40;;;13.20;99.90;;;;;;5036747;28;20593;-68
2023/10/24 03:30:22;;;;;;;31.10;30.00;;;13.20;99.90;;;;;;5032575;28;20219;-68
2023/10/24 03:32:49;;;;;;;34.97;33.73;;;13.20;99.90;;;;;;5041617;28;20220;-68
2023/10/24 03:35:16;;;;;;;41.80;40.33;;;13.10;99.90;;;;;;5039291;28;20698;-66
2023/10/24 03:37:43;;;;;;;36.33;35.07;;;13.10;99.90;;;;;;5033324;28;20196;-67
2023/10/24 03:40:12;;;;;;;35.27;33.97;;;13.20;99.90;;;;;;5033043;28;20208;-66
2023/10/24 03:42:38;;;;;;;34.20;33.00;;;13.30;99.90;;;;;;5032875;28;20579;-65
2023/10/24 03:45:06;;;;;;;33.67;32.47;;;13.30;99.90;;;;;;5030240;28;20671;-66
2023/10/24 03:47:33;;;;;;;35.80;34.50;;;13.10;99.90;;;;;;5037166;28;20200;-66
2023/10/24 03:50:00;;;;;;;40.23;38.73;;;13.00;99.90;;;;;;5032753;28;20208;-67
2023/10/24 03:52:26;;;;;;;38.83;37.43;;;12.90;99.90;;;;;;5032495;28;20244;-66
2023/10/24 03:54:53;;;;;;;38.50;37.17;;;12.90;99.90;;;;;;5032419;28;20227;-66
2023/10/24 03:57:21;;;;;;;35.70;34.40;;;12.90;99.90;;;;;;5033259;28;20213;-68
2023/10/24 03:59:48;;;;;;;44.33;42.77;;;12.90;99.90;;;;;;5033050;28;20651;-68
2023/10/24 04:02:15;;;;;;;42.43;40.93;;;13.00;99.90;;;;;;5033063;28;20232;-68
2023/10/24 04:04:42;;;;;;;39.67;38.23;;;13.00;99.90;;;;;;5032846;28;20201;-68
2023/10/24 04:07:09;;;;;;;40.53;39.10;;;13.10;99.90;;;;;;5033152;28;20201;-67
2023/10/24 04:09:35;;;;;;;35.90;34.63;;;13.10;99.90;;;;;;5031756;28;20196;-67
2023/10/24 04:12:02;;;;;;;43.57;42.00;;;13.10;99.90;;;;;;5032734;28;20225;-67
2023/10/24 04:14:30;;;;;;;49.00;47.23;;;13.10;99.90;;;;;;5032241;28;20739;-66
2023/10/24 04:16:57;;;;;;;56.10;54.17;;;13.00;99.90;;;;;;5032520;28;20201;-67
2023/10/24 04:19:24;;;;;;;47.83;46.13;;;13.00;99.90;;;;;;5032462;28;20213;-66
2023/10/24 04:21:50;;;;;;;58.47;56.37;;;13.00;99.90;;;;;;5032286;28;20315;-65
2023/10/24 04:24:21;;;;;;;56.93;54.93;;;12.90;99.90;;;;;;5032297;28;20204;-67
2023/10/24 04:26:48;;;;;;;65.23;62.93;;;13.00;99.90;;;;;;5032843;28;20279;-67
2023/10/24 04:29:15;;;;;;;61.03;58.90;;;13.00;99.90;;;;;;5032861;28;20546;-66
2023/10/24 04:31:44;;;;;;;76.77;74.13;;;13.00;99.90;;;;;;5032704;28;20204;-66
2023/10/24 04:34:11;;;;;;;62.73;60.53;;;13.10;99.90;;;;;;5032314;28;20232;-66
2023/10/24 04:36:38;;;;;;;61.10;58.97;;;13.10;99.90;;;;;;5028412;28;20615;-67
2023/10/24 04:39:05;;;;;;;49.53;47.80;;;13.20;99.90;;;;;;5029307;28;20307;-67
2023/10/24 04:41:31;;;;;;;55.40;53.47;;;13.20;99.90;;;;;;5033541;28;20216;-66
2023/10/24 04:43:58;;;;;;;44.97;43.37;;;13.30;99.90;;;;;;5038928;28;20227;-67
2023/10/24 04:46:25;;;;;;;55.53;53.53;;;13.40;99.90;;;;;;5037072;28;20200;-65
2023/10/24 04:48:53;;;;;;;51.97;50.17;;;13.40;99.90;;;;;;5036838;28;20212;-66
2023/10/24 04:51:20;;;;;;;42.40;40.93;;;13.40;99.90;;;;;;5040045;28;20236;-66
2023/10/24 04:53:47;;;;;;;43.73;42.17;;;13.40;99.90;;;;;;5033731;28;20286;-68
2023/10/24 04:56:14;;;;;;;48.60;46.87;;;13.50;99.90;;;;;;5032864;28;20221;-65
2023/10/24 04:58:40;;;;;;;55.37;53.43;;;13.60;99.90;;;;;;5032628;28;20555;-68
2023/10/24 05:01:07;;;;;;;51.43;49.50;;;13.70;99.90;;;;;;5031590;28;20228;-66
2023/10/24 05:03:35;;;;;;;59.60;57.53;;;13.70;99.90;;;;;;5031673;28;20595;-66
2023/10/24 05:06:03;;;;;;;58.37;56.30;;;13.80;99.90;;;;;;5032578;28;20193;-66
2023/10/24 05:08:30;;;;;;;63.97;61.70;;;14.00;99.90;;;;;;5037299;28;20208;-65
2023/10/24 05:10:57;;;;;;;47.47;45.80;;;13.90;99.90;;;;;;5032868;28;20228;-65
2023/10/24 05:13:24;;;;;;;52.37;50.50;;;13.90;99.90;;;;;;5031916;28;20224;-65
2023/10/24 05:15:50;;;;;;;50.30;48.53;;;13.90;99.90;;;;;;5031470;28;20231;-65
2023/10/24 05:18:17;;;;;;;45.87;44.17;;;14.00;99.90;;;;;;5031068;28;20201;-65
2023/10/24 05:20:44;;;;;;;56.90;54.93;;;14.10;99.90;;;;;;5031931;28;20197;-64
2023/10/24 05:23:12;;;;;;;45.10;43.53;;;14.00;99.90;;;;;;5032976;28;20224;-66
2023/10/24 05:25:53;;;;;;;47.50;45.83;;;14.00;99.90;;;;;;4999415;28;20315;-66
2023/10/24 05:28:20;;;;;;;43.17;41.67;;;14.20;99.90;;;;;;5031162;28;20629;-65
2023/10/24 05:30:47;;;;;;;51.37;49.57;;;14.20;99.90;;;;;;5031003;28;20215;-65
2023/10/24 05:33:13;;;;;;;45.07;43.53;;;14.20;99.90;;;;;;5031203;28;20216;-65
2023/10/24 05:35:47;;;;;;;35.37;34.13;;;14.30;99.90;;;;;;5030672;28;20711;-64
2023/10/24 05:38:15;;;;;;;35.33;34.07;;;14.30;99.90;;;;;;5031407;28;20201;-65
2023/10/24 05:40:45;;;;;;;32.37;31.23;;;14.20;99.90;;;;;;5030941;28;20208;-64
2023/10/24 05:43:12;;;;;;;45.27;43.57;;;14.00;99.90;;;;;;5031121;28;20255;-65
2023/10/24 05:45:38;;;;;;;46.50;44.80;;;13.80;99.90;;;;;;5030809;28;20288;-65
2023/10/24 05:48:05;;;;;;;44.10;42.50;;;13.60;99.90;;;;;;5030999;28;20663;-64
2023/10/24 05:50:33;;;;;;;39.03;37.63;;;13.50;99.90;;;;;;5031090;28;20204;-65
2023/10/24 05:53:00;;;;;;;39.43;38.03;;;13.30;99.90;;;;;;5030871;28;20228;-65
2023/10/24 05:55:28;;;;;;;42.27;40.77;;;13.30;99.90;;;;;;5031494;28;20597;-66
2023/10/24 05:57:55;;;;;;;64.17;61.97;;;13.20;99.90;;;;;;5031075;28;20216;-66
2023/10/24 06:00:22;;;;;;;36.80;35.50;;;13.20;99.90;;;;;;5031384;28;20232;-66
2023/10/24 06:02:49;;;;;;;35.10;33.83;;;13.20;99.90;;;;;;5030874;28;20232;-66
2023/10/24 06:05:16;;;;;;;33.37;32.20;;;13.20;99.90;;;;;;5030603;28;20200;-66
2023/10/24 06:07:43;;;;;;;36.73;35.40;;;13.20;99.90;;;;;;5030463;28;20252;-66
2023/10/24 06:10:10;;;;;;;33.47;32.27;;;13.20;99.90;;;;;;5030047;28;20205;-66
2023/10/24 06:12:38;;;;;;;30.93;29.83;;;13.20;99.90;;;;;;5030929;28;20232;-64
2023/10/24 06:15:05;;;;;;;33.30;32.10;;;13.30;99.90;;;;;;5031081;28;20241;-65
2023/10/24 06:17:32;;;;;;;32.20;31.10;;;13.30;99.90;;;;;;5031272;28;20212;-64
2023/10/24 06:19:59;;;;;;;29.93;28.83;;;13.40;99.90;;;;;;5031961;28;20235;-65
2023/10/24 06:22:28;;;;;;;28.60;27.60;;;13.50;99.90;;;;;;5030628;28;20231;-64
2023/10/24 06:24:55;;;;;;;30.60;29.50;;;13.50;99.90;;;;;;5030913;28;20205;-64
2023/10/24 06:27:21;;;;;;;33.90;32.70;;;13.60;99.90;;;;;;5031194;28;20204;-66
2023/10/24 06:29:49;;;;;;;32.30;31.17;;;13.60;99.90;;;;;;5030911;28;20212;-64
2023/10/24 06:32:16;;;;;;;33.87;32.67;;;13.60;99.90;;;;;;5030126;28;20596;-65
2023/10/24 06:34:43;;;;;;;37.17;35.87;;;13.70;99.90;;;;;;5030800;28;20215;-64
2023/10/24 06:37:09;;;;;;;39.10;37.73;;;13.60;99.90;;;;;;5030961;28;20224;-66
2023/10/24 06:39:36;;;;;;;38.70;37.30;;;13.60;99.90;;;;;;5030765;28;20212;-65
2023/10/24 06:42:03;;;;;;;43.90;42.40;;;13.60;99.90;;;;;;5030759;28;20256;-65
2023/10/24 06:44:31;;;;;;;32.07;30.97;;;13.60;99.90;;;;;;5030866;28;20208;-65
2023/10/24 06:47:00;;;;;;;39.10;37.70;;;13.60;99.90;;;;;;5031492;28;20618;-65
2023/10/24 06:49:26;;;;;;;35.63;34.33;;;13.70;99.90;;;;;;5035215;28;20226;-65
2023/10/24 06:51:53;;;;;;;48.53;46.83;;;13.60;99.90;;;;;;5037797;28;20291;-65
2023/10/24 06:54:20;;;;;;;58.63;56.53;;;13.70;99.90;;;;;;5034152;28;20215;-65
2023/10/24 06:56:46;;;;;;;42.33;40.83;;;13.60;99.90;;;;;;5035283;28;20224;-64
2023/10/24 06:59:13;;;;;;;41.67;40.13;;;13.60;99.90;;;;;;5031011;28;20212;-65
2023/10/24 07:01:40;;;;;;;43.80;42.27;;;13.60;99.90;;;;;;5030394;28;20238;-65
2023/10/24 07:04:08;;;;;;;32.83;31.70;;;13.60;99.90;;;;;;5027734;28;20203;-65
2023/10/24 07:06:35;;;;;;;48.20;46.50;;;13.60;99.90;;;;;;5030629;28;20365;-63
2023/10/24 07:09:02;;;;;;;33.47;32.27;;;13.60;99.90;;;;;;5031062;28;20211;-64
2023/10/24 07:11:29;;;;;;;38.93;37.57;;;13.60;99.90;;;;;;5030817;28;20590;-65
2023/10/24 07:13:55;;;;;;;34.67;33.47;;;13.60;99.90;;;;;;5031178;28;20403;-64
2023/10/24 07:16:22;;;;;;;32.80;31.60;;;13.60;99.90;;;;;;5030556;28;20255;-66
2023/10/24 07:18:49;;;;;;;38.83;37.43;;;13.60;99.90;;;;;;5030453;28;20205;-65
2023/10/24 07:21:17;;;;;;;43.60;42.10;;;13.60;99.90;;;;;;5030507;28;20241;-65
2023/10/24 07:23:43;;;;;;;39.33;37.97;;;13.70;99.90;;;;;;5030468;28;20308;-65
2023/10/24 07:26:10;;;;;;;33.07;31.90;;;13.70;99.90;;;;;;5030492;28;20197;-66
2023/10/24 07:28:37;;;;;;;37.30;35.97;;;13.70;99.90;;;;;;5029975;28;20585;-65
2023/10/24 07:31:04;;;;;;;58.70;56.60;;;13.60;99.90;;;;;;5030628;28;20220;-64
2023/10/24 07:33:31;;;;;;;51.90;50.07;;;13.70;99.90;;;;;;5029452;28;20251;-64
2023/10/24 07:36:04;;;;;;;32.67;31.50;;;13.60;99.90;;;;;;5029763;28;20229;-64
2023/10/24 07:38:32;;;;;;;49.17;47.43;;;13.70;99.90;;;;;;5023738;28;20208;-64
2023/10/24 07:40:59;;;;;;;50.20;48.43;;;13.70;99.90;;;;;;5028509;28;20220;-65
2023/10/24 07:43:26;;;;;;;38.97;37.57;;;13.60;99.90;;;;;;5029490;28;20235;-65
2023/10/24 07:45:54;;;;;;;32.57;31.40;;;13.60;99.90;;;;;;5032883;28;20207;-64
2023/10/24 07:48:20;;;;;;;29.33;28.33;;;13.60;99.90;;;;;;5032506;28;20223;-65
2023/10/24 07:50:51;;;;;;;38.40;37.07;;;13.70;99.90;;;;;;5030259;28;20651;-65
2023/10/24 07:53:18;;;;;;;36.80;35.50;;;13.70;99.90;;;;;;5030398;28;20267;-65
2023/10/24 07:55:47;;;;;;;31.67;30.53;;;13.70;99.90;;;;;;5028071;28;20251;-66
2023/10/24 07:58:16;;;;;;;35.47;34.23;;;13.70;99.90;;;;;;5027899;28;20201;-65
2023/10/24 08:00:43;;;;;;;41.33;39.80;;;13.70;99.90;;;;;;5029477;28;20219;-66
2023/10/24 08:03:10;;;;;;;44.23;42.70;;;13.80;99.90;;;;;;5029839;28;20232;-66
2023/10/24 08:05:36;;;;;;;53.00;51.10;;;13.80;99.90;;;;;;5026256;28;20229;-65
2023/10/24 08:08:03;;;;;;;40.17;38.73;;;13.80;99.90;;;;;;5028776;28;20197;-64
2023/10/24 08:10:32;;;;;;;45.13;43.53;;;13.90;99.90;;;;;;5028765;28;20197;-65
2023/10/24 08:13:00;;;;;;;42.63;41.13;;;13.90;99.90;;;;;;5028566;28;20225;-65
2023/10/24 08:15:27;;;;;;;33.57;32.37;;;13.90;99.90;;;;;;5030923;28;20223;-65
2023/10/24 08:17:53;;;;;;;36.43;35.13;;;13.90;99.90;;;;;;5030301;28;20213;-65
2023/10/24 08:20:20;;;;;;;39.63;38.23;;;14.00;99.90;;;;;;5033695;28;20307;-64
2023/10/24 08:22:47;;;;;;;39.90;38.53;;;14.00;99.90;;;;;;5033671;28;20235;-64
2023/10/24 08:25:14;;;;;;;40.93;39.50;;;13.90;99.90;;;;;;5033620;28;20610;-65
2023/10/24 08:27:41;;;;;;;45.93;44.33;;;14.00;99.90;;;;;;5033394;28;20208;-63
2023/10/24 08:30:10;;;;;;;42.20;40.70;;;14.00;99.90;;;;;;5033281;28;20209;-64
2023/10/24 08:32:37;;;;;;;44.13;42.63;;;14.00;99.90;;;;;;5034012;28;20228;-64
2023/10/24 08:35:04;;;;;;;45.23;43.63;;;14.00;99.90;;;;;;5034784;28;20204;-64
2023/10/24 08:37:31;;;;;;;46.00;44.40;;;14.10;99.90;;;;;;5031098;28;20277;-64
2023/10/24 08:39:58;;;;;;;47.83;46.13;;;14.10;99.90;;;;;;5030870;28;20197;-64
2023/10/24 08:42:25;;;;;;;42.53;41.03;;;14.10;99.90;;;;;;5031545;28;20765;-64
2023/10/24 08:44:53;;;;;;;36.70;35.43;;;14.10;99.90;;;;;;5029702;28;20287;-63
2023/10/24 08:47:22;;;;;;;39.97;38.53;;;14.20;99.90;;;;;;5030833;28;20235;-65
2023/10/24 08:49:49;;;;;;;40.30;38.90;;;14.20;99.90;;;;;;5028481;28;20216;-65
2023/10/24 08:52:16;;;;;;;35.87;34.60;;;14.20;99.90;;;;;;5030120;28;20323;-65
2023/10/24 08:54:43;;;;;;;36.27;34.97;;;14.20;99.90;;;;;;5026219;28;20204;-65
2023/10/24 08:57:10;;;;;;;38.93;37.53;;;14.30;99.90;;;;;;5027330;28;20715;-65
2023/10/24 08:59:41;;;;;;;43.03;41.53;;;14.30;99.90;;;;;;5030658;28;20240;-64
2023/10/24 09:02:11;;;;;;;37.87;36.53;;;14.30;99.90;;;;;;5031780;28;20234;-66
2023/10/24 09:04:40;;;;;;;40.33;38.90;;;14.40;99.90;;;;;;5030455;28;20205;-65
2023/10/24 09:07:07;;;;;;;37.93;36.63;;;14.40;99.90;;;;;;5030774;28;20200;-64
2023/10/24 09:09:35;;;;;;;35.27;34.03;;;14.40;99.90;;;;;;5038895;28;20208;-64
2023/10/24 09:12:05;;;;;;;35.60;34.37;;;14.50;99.90;;;;;;5045220;28;20224;-64
2023/10/24 09:14:32;;;;;;;33.07;31.87;;;14.50;99.90;;;;;;5040726;28;20207;-65
2023/10/24 09:17:03;;;;;;;36.03;34.77;;;14.50;99.90;;;;;;5028044;28;20225;-65
2023/10/24 09:19:31;;;;;;;39.20;37.80;;;14.50;99.90;;;;;;5032076;28;20212;-65
2023/10/24 09:22:00;;;;;;;35.10;33.87;;;14.50;99.90;;;;;;5029314;28;20708;-65
2023/10/24 09:24:27;;;;;;;31.50;30.40;;;14.60;99.90;;;;;;5032031;28;20339;-65
2023/10/24 09:26:55;;;;;;;41.30;39.83;;;14.60;99.90;;;;;;5030083;28;20205;-64
2023/10/24 09:29:25;;;;;;;35.27;34.03;;;14.60;99.90;;;;;;5030941;28;20264;-65
2023/10/24 09:31:53;;;;;;;32.67;31.57;;;14.60;99.90;;;;;;5031080;28;20725;-63
2023/10/24 09:34:21;;;;;;;35.00;33.77;;;14.70;99.90;;;;;;5029689;28;20205;-63
2023/10/24 09:36:49;;;;;;;35.10;33.87;;;14.70;99.90;;;;;;5029015;28;20228;-65
2023/10/24 09:39:18;;;;;;;32.83;31.70;;;14.70;99.90;;;;;;5028623;28;20291;-65
2023/10/24 09:41:46;;;;;;;32.23;31.13;;;14.80;99.90;;;;;;5028308;28;20208;-65
2023/10/24 09:44:13;;;;;;;31.83;30.73;;;14.80;99.90;;;;;;5032337;28;20246;-65
2023/10/24 09:46:42;;;;;;;33.23;32.07;;;14.80;99.90;;;;;;5034587;28;20702;-65
2023/10/24 09:49:11;;;;;;;32.67;31.53;;;14.80;99.90;;;;;;5037678;28;20216;-65
2023/10/24 09:51:39;;;;;;;33.37;32.20;;;14.80;99.90;;;;;;5033623;28;20303;-64
2023/10/24 09:54:07;;;;;;;31.87;30.77;;;14.80;99.90;;;;;;5033776;28;20205;-64
2023/10/24 09:56:35;;;;;;;32.90;31.73;;;14.80;99.90;;;;;;5031165;28;20721;-65
2023/10/24 09:59:03;;;;;;;43.20;41.67;;;14.90;99.90;;;;;;5031573;28;20204;-65
2023/10/24 10:01:31;;;;;;;34.43;33.23;;;14.90;99.90;;;;;;5029779;28;20579;-63
2023/10/24 10:04:00;;;;;;;35.27;34.00;;;14.90;99.90;;;;;;5032432;28;20215;-66
2023/10/24 10:06:28;;;;;;;32.37;31.20;;;14.90;99.90;;;;;;5030533;28;20667;-66
2023/10/24 10:08:58;;;;;;;38.53;37.20;;;14.90;99.90;;;;;;5032273;28;20254;-65
2023/10/24 10:11:27;;;;;;;31.87;30.73;;;14.90;99.90;;;;;;5033738;28;20223;-64
2023/10/24 10:14:06;;;;;;;32.93;31.77;;;14.90;99.90;;;;;;5031484;28;20256;-65
2023/10/24 10:16:46;;;;;;;33.43;32.23;;;15.00;99.90;;;;;;5028273;28;20671;-65
2023/10/24 10:19:50;;;;;;;34.97;33.77;;;15.00;99.90;;;;;;5031233;28;20709;-63
2023/10/24 10:22:38;;;;;;;44.20;42.70;;;15.00;99.90;;;;;;5026112;28;20239;-64
2023/10/24 10:25:25;;;;;;;34.83;33.60;;;15.00;99.90;;;;;;5029826;28;20212;-64
2023/10/24 10:28:00;;;;;;;41.40;39.97;;;15.00;99.90;;;;;;5029739;28;20205;-66
2023/10/24 10:30:36;;;;;;;44.67;43.10;;;15.00;99.90;;;;;;5029904;28;20204;-65
2023/10/24 10:33:11;;;;;;;46.00;44.37;;;15.10;99.90;;;;;;5030177;28;20231;-64
2023/10/24 10:35:49;;;;;;;32.40;31.27;;;15.00;99.90;;;;;;5032735;28;20200;-66
2023/10/24 10:38:25;;;;;;;32.73;31.60;;;15.00;99.90;;;;;;5040882;28;20227;-68
2023/10/24 10:40:52;;;;;;;36.47;35.20;;;15.10;99.90;;;;;;5041412;28;20208;-64
2023/10/24 10:43:31;;;;;;;37.60;36.27;;;15.20;99.90;;;;;;5039623;28;20252;-66
2023/10/24 10:46:17;;;;;;;35.17;33.97;;;15.10;99.90;;;;;;5041184;28;20201;-66
2023/10/24 10:48:44;;;;;;;39.33;37.93;;;15.10;99.90;;;;;;5040576;28;20196;-65
2023/10/24 10:51:13;;;;;;;35.37;34.17;;;15.10;99.90;;;;;;5041976;28;20201;-65
2023/10/24 10:53:47;;;;;;;41.07;39.63;;;15.10;99.90;;;;;;5040806;28;20232;-64
2023/10/24 10:56:20;;;;;;;38.07;36.73;;;15.00;99.90;;;;;;5041945;28;20199;-66
2023/10/24 10:59:15;;;;;;;34.83;33.63;;;15.10;99.90;;;;;;5043480;28;20215;-65
2023/10/24 11:01:55;;;;;;;44.70;43.13;;;15.10;99.90;;;;;;5040986;28;20227;-65
2023/10/24 11:04:22;;;;;;;41.97;40.50;;;15.20;99.90;;;;;;5034325;28;20208;-65
2023/10/24 11:06:52;;;;;;;23.93;23.13;;;15.20;99.90;;;;;;5027837;28;20609;-65
2023/10/24 11:09:20;;;;;;;31.63;30.53;;;15.20;99.90;;;;;;5031316;28;20235;-65
2023/10/24 11:11:47;;;;;;;33.60;32.43;;;15.20;99.90;;;;;;5029995;28;20203;-64
2023/10/24 11:14:15;;;;;;;33.47;32.30;;;15.20;99.90;;;;;;5027386;28;20205;-64
2023/10/24 11:16:44;;;;;;;32.43;31.33;;;15.20;99.90;;;;;;5027897;28;20267;-63
2023/10/24 11:19:18;;;;;;;35.00;33.80;;;15.20;99.90;;;;;;5031794;28;20216;-65
2023/10/24 11:21:46;;;;;;;35.13;33.93;;;15.20;99.90;;;;;;5036795;28;20205;-65
2023/10/24 11:24:17;;;;;;;33.40;32.23;;;15.30;99.90;;;;;;5032780;28;20654;-65
2023/10/24 11:26:44;;;;;;;34.77;33.57;;;15.30;99.90;;;;;;5030995;28;20209;-65
2023/10/24 11:29:12;;;;;;;37.77;36.47;;;15.30;99.90;;;;;;5032478;28;20205;-66
2023/10/24 11:31:40;;;;;;;42.17;40.67;;;15.30;99.90;;;;;;5031297;28;20644;-65
2023/10/24 11:34:08;;;;;;;37.50;36.20;;;15.40;99.90;;;;;;5033689;28;20204;-64
2023/10/24 11:36:34;;;;;;;34.53;33.33;;;15.40;99.90;;;;;;5031871;28;20205;-64
2023/10/24 11:39:04;;;;;;;35.37;34.17;;;15.40;99.90;;;;;;5032628;28;20272;-65
2023/10/24 11:41:31;;;;;;;38.67;37.37;;;15.40;99.90;;;;;;5033723;28;20201;-64
2023/10/24 11:43:57;;;;;;;28.63;27.70;;;15.40;99.90;;;;;;5033551;28;20227;-64
2023/10/24 11:46:24;;;;;;;35.40;34.13;;;15.50;99.90;;;;;;5033884;28;20224;-65
2023/10/24 11:48:51;;;;;;;32.67;31.57;;;15.50;99.90;;;;;;5030740;28;21313;-65
2023/10/24 11:51:19;;;;;;;28.13;27.17;;;15.50;99.90;;;;;;5036028;28;20563;-65
2023/10/24 11:53:46;;;;;;;31.03;29.97;;;15.60;99.90;;;;;;5032593;28;20221;-65
2023/10/24 11:56:13;;;;;;;38.40;37.07;;;15.60;99.90;;;;;;5033761;28;20204;-65
2023/10/24 11:58:42;;;;;;;22.70;21.90;;;15.60;99.90;;;;;;5032745;28;20229;-66
2023/10/24 12:01:09;;;;;;;21.87;21.13;;;15.60;99.90;;;;;;5030248;28;20243;-63
2023/10/24 12:03:45;;;;;;;16.47;15.93;;;15.70;99.90;;;;;;5029019;28;20231;-65
2023/10/24 12:06:12;;;;;;;23.07;22.27;;;15.70;99.90;;;;;;5031055;28;20196;-65
2023/10/24 12:08:42;;;;;;;19.97;19.27;;;15.70;99.90;;;;;;5030280;28;20193;-64
2023/10/24 12:11:10;;;;;;;21.80;21.07;;;15.80;99.90;;;;;;5030658;28;20204;-65
2023/10/24 12:13:37;;;;;;;24.97;24.10;;;15.80;99.90;;;;;;5033361;28;20703;-63
2023/10/24 12:16:04;;;;;;;23.60;22.80;;;15.80;99.90;;;;;;5032917;28;20284;-66
2023/10/24 12:18:31;;;;;;;20.10;19.40;;;15.70;99.90;;;;;;5030912;28;20227;-67
2023/10/24 12:20:58;;;;;;;20.03;19.33;;;15.80;99.90;;;;;;5034435;28;20601;-66
2023/10/24 12:23:25;;;;;;;21.13;20.43;;;15.80;99.90;;;;;;5032919;28;20302;-65
2023/10/24 12:25:54;;;;;;;19.33;18.63;;;15.80;99.90;;;;;;5033080;28;20207;-65
2023/10/24 12:28:20;;;;;;;21.63;20.93;;;15.80;99.90;;;;;;5032673;28;20219;-65
2023/10/24 12:30:47;;;;;;;19.33;18.67;;;15.70;99.90;;;;;;5031832;28;20209;-66
2023/10/24 12:33:14;;;;;;;23.90;23.10;;;15.70;99.90;;;;;;5032447;28;20225;-65